Time;durP1;ratioP1;P1;durP2;ratioP2;P2;SDS_P1;SDS_P2;PMS_P1;PMS_P2;Temp;Humidity;BMP_temperature;BMP_pressure;BME280_temperature;BME280_humidity;BME280_pressure;Samples;Min_cycle;Max_cycle;Signal;HPM_P1;HPM_P2
2022/03/28 00:03:18;;;;;;;14.35;6.95;;;5.60;99.90;;;;;;20976368;28;20032;-74
2022/03/28 00:13:19;;;;;;;17.47;7.57;;;5.80;99.90;;;;;;20996981;28;20036;-73
2022/03/28 00:23:21;;;;;;;15.53;7.57;;;5.80;99.90;;;;;;20977479;28;20542;-74
2022/03/28 00:33:22;;;;;;;17.95;7.95;;;5.80;99.90;;;;;;20994381;28;20381;-74
2022/03/28 00:43:22;;;;;;;18.43;8.47;;;5.50;99.90;;;;;;20997505;28;20394;-74
2022/03/28 00:53:25;;;;;;;32.50;9.53;;;5.30;99.90;;;;;;20975032;28;20048;-74
2022/03/28 01:03:26;;;;;;;18.17;8.05;;;4.80;99.90;;;;;;20992241;28;20375;-74
2022/03/28 01:13:27;;;;;;;19.57;8.87;;;4.60;99.90;;;;;;20973880;28;20036;-74
2022/03/28 01:23:28;;;;;;;17.60;8.05;;;5.10;99.90;;;;;;20990766;28;20036;-74
2022/03/28 01:33:29;;;;;;;16.67;7.77;;;5.10;99.90;;;;;;20972750;28;20398;-74
2022/03/28 01:43:30;;;;;;;17.80;8.30;;;5.10;99.90;;;;;;20990442;28;20107;-74
2022/03/28 01:53:31;;;;;;;20.57;9.40;;;4.60;99.90;;;;;;20992515;28;20037;-74
2022/03/28 02:03:31;;;;;;;17.90;8.13;;;4.40;99.90;;;;;;20971483;28;20491;-74
2022/03/28 02:13:32;;;;;;;18.67;9.20;;;4.50;99.90;;;;;;20989198;28;20399;-74
2022/03/28 02:23:33;;;;;;;24.67;8.87;;;4.80;99.90;;;;;;20988865;28;20479;-74
2022/03/28 02:33:34;;;;;;;20.87;8.90;;;5.30;99.90;;;;;;20992877;28;20433;-74
2022/03/28 02:43:35;;;;;;;21.77;8.07;;;5.70;99.90;;;;;;20985667;28;20028;-74
2022/03/28 02:53:35;;;;;;;17.73;7.83;;;5.70;99.90;;;;;;21002758;28;20025;-74
2022/03/28 03:03:36;;;;;;;30.87;9.40;;;5.00;99.90;;;;;;20944904;22;20147;-75
2022/03/28 03:13:37;;;;;;;22.37;8.80;;;4.80;99.90;;;;;;20918185;28;20374;-75
2022/03/28 03:23:38;;;;;;;15.90;7.97;;;4.80;99.90;;;;;;20919758;28;20804;-75
2022/03/28 03:33:39;;;;;;;18.67;8.97;;;4.60;99.90;;;;;;20917040;28;20033;-74
2022/03/28 03:43:41;;;;;;;24.13;9.33;;;4.50;99.90;;;;;;20914394;28;20041;-75
2022/03/28 03:53:42;;;;;;;25.48;11.82;;;4.20;99.90;;;;;;20910385;28;20283;-75
2022/03/28 04:03:43;;;;;;;20.23;10.48;;;3.90;99.90;;;;;;20912360;28;20043;-74
2022/03/28 04:13:43;;;;;;;25.50;10.30;;;3.90;99.90;;;;;;20909037;28;20475;-75
2022/03/28 04:23:44;;;;;;;24.15;9.27;;;3.40;99.90;;;;;;20911056;28;20843;-75
2022/03/28 04:33:45;;;;;;;21.13;9.45;;;3.90;99.90;;;;;;20912434;28;20037;-76
2022/03/28 04:43:46;;;;;;;24.23;9.95;;;3.90;99.90;;;;;;20911447;28;20124;-74
2022/03/28 04:53:47;;;;;;;22.63;10.02;;;4.50;99.90;;;;;;20910034;28;20513;-76
2022/03/28 05:03:47;;;;;;;22.57;10.70;;;4.70;99.90;;;;;;20910346;28;20473;-75
2022/03/28 05:13:49;;;;;;;28.93;10.53;;;4.80;99.90;;;;;;20911133;28;20710;-75
2022/03/28 05:23:50;;;;;;;27.73;11.07;;;4.90;99.90;;;;;;20908957;28;20376;-77
2022/03/28 05:33:51;;;;;;;32.90;11.67;;;4.90;99.90;;;;;;20908726;28;20029;-77
2022/03/28 05:43:52;;;;;;;25.80;11.10;;;4.90;99.90;;;;;;20907583;28;20032;-77
2022/03/28 05:53:53;;;;;;;;;;;5.00;99.90;;;;;;20906198;28;20075;-76
2022/03/28 06:03:54;;;;;;;28.50;10.50;;;5.20;99.90;;;;;;20905506;28;19916;-77
2022/03/28 06:13:57;;;;;;;24.80;11.10;;;5.30;99.90;;;;;;20921898;28;20175;-77
2022/03/28 06:23:59;;;;;;;28.65;11.02;;;5.40;99.90;;;;;;20922913;28;20064;-77
2022/03/28 06:34:01;;;;;;;27.67;11.50;;;5.60;99.90;;;;;;20922546;28;20033;-76
2022/03/28 06:44:05;;;;;;;21.02;10.65;;;5.80;99.90;;;;;;20929879;28;20044;-77
2022/03/28 06:54:07;;;;;;;25.63;11.60;;;6.20;99.90;;;;;;20928179;28;20403;-77
2022/03/28 07:04:10;;;;;;;26.15;10.85;;;6.60;99.90;;;;;;20944481;28;20131;-76
2022/03/28 07:14:11;;;;;;;27.13;11.75;;;7.00;99.90;;;;;;20925958;28;20467;-78
2022/03/28 07:24:12;;;;;;;24.13;11.30;;;7.60;99.90;;;;;;20928116;28;20029;-78
2022/03/28 07:34:31;;;;;;;26.93;11.47;;;8.20;99.90;;;;;;20935341;28;20287;-77
2022/03/28 07:44:31;;;;;;;24.40;12.00;;;8.50;99.90;;;;;;20924597;28;20025;-75
2022/03/28 07:54:32;;;;;;;24.43;12.90;;;8.80;99.90;;;;;;20922422;28;20071;-78
2022/03/28 08:04:33;;;;;;;27.53;13.07;;;9.40;99.90;;;;;;20932397;28;20024;-78
2022/03/28 08:14:34;;;;;;;24.17;11.83;;;9.80;99.90;;;;;;20921378;28;20041;-77
2022/03/28 08:24:35;;;;;;;28.27;12.47;;;10.50;99.90;;;;;;20917222;28;20035;-77
2022/03/28 08:34:36;;;;;;;29.80;12.83;;;12.10;99.90;;;;;;20913170;28;20035;-77
2022/03/28 08:44:41;;;;;;;30.80;13.60;;;12.40;99.90;;;;;;20912956;28;20041;-77
2022/03/28 08:54:43;;;;;;;29.77;13.10;;;13.70;99.90;;;;;;20912108;28;20438;-77
2022/03/28 09:04:46;;;;;;;;;;;14.20;99.90;;;;;;20935225;22;20109;-77
2022/03/28 09:14:46;;;;;;;;;;;14.40;99.90;;;;;;20830943;28;19917;-77
2022/03/28 09:24:48;;;;;;;32.87;13.93;;;15.50;99.90;;;;;;20824839;28;19921;-77
2022/03/28 09:35:09;;;;;;;25.45;13.68;;;16.60;99.90;;;;;;20826087;28;20323;-77
2022/03/28 09:45:19;;;;;;;28.40;13.75;;;17.60;99.90;;;;;;20828566;28;20299;-77
2022/03/28 09:55:20;;;;;;;22.83;13.63;;;17.70;99.90;;;;;;20831496;28;20626;-77
2022/03/28 10:05:21;;;;;;;27.40;13.83;;;18.70;99.90;;;;;;20831535;28;20030;-78
2022/03/28 10:15:22;;;;;;;26.20;13.90;;;18.90;99.00;;;;;;20829161;28;20026;-77
2022/03/28 10:25:25;;;;;;;27.07;13.30;;;19.70;97.20;;;;;;20829688;28;20098;-77
2022/03/28 10:35:26;;;;;;;24.52;13.70;;;21.50;93.50;;;;;;20834357;28;20052;-78
2022/03/28 10:45:36;;;;;;;22.40;13.40;;;21.10;94.70;;;;;;20905972;28;20061;-77
2022/03/28 10:55:44;;;;;;;22.67;12.98;;;22.80;92.30;;;;;;20913523;28;20564;-78
2022/03/28 11:05:54;;;;;;;21.63;12.82;;;22.90;90.60;;;;;;20926505;28;20033;-78
2022/03/28 11:15:57;;;;;;;21.70;12.73;;;23.80;88.80;;;;;;20926390;28;20029;-78
2022/03/28 11:25:58;;;;;;;25.20;13.98;;;22.40;86.10;;;;;;20925886;28;20040;-78
2022/03/28 11:36:14;;;;;;;30.97;14.13;;;23.10;84.30;;;;;;20923725;28;20447;-78
2022/03/28 11:46:20;;;;;;;27.98;13.23;;;23.20;88.70;;;;;;20922216;28;20374;-78
2022/03/28 11:56:26;;;;;;;21.38;13.23;;;23.10;76.90;;;;;;20923342;28;20401;-78
2022/03/28 12:06:42;;;;;;;24.23;11.13;;;23.40;75.90;;;;;;20929344;28;20044;-78
2022/03/28 12:16:57;;;;;;;20.50;12.60;;;22.50;70.20;;;;;;20920426;28;20039;-78
2022/03/28 12:27:00;;;;;;;22.20;11.32;;;22.60;68.50;;;;;;20916768;28;20111;-78
2022/03/28 12:37:01;;;;;;;17.63;8.52;;;22.40;68.50;;;;;;20920809;28;20083;-78
2022/03/28 12:47:04;;;;;;;15.18;7.85;;;22.20;60.00;;;;;;20923276;28;20092;-77
2022/03/28 12:57:05;;;;;;;17.60;11.20;;;22.60;58.50;;;;;;20919986;28;20029;-78
2022/03/28 13:07:06;;;;;;;13.33;7.90;;;22.20;67.60;;;;;;20914871;28;20434;-78
2022/03/28 13:17:08;;;;;;;14.57;7.70;;;22.20;58.80;;;;;;20928102;28;20051;-77
2022/03/28 13:37:30;;;;;;;18.30;8.85;;;22.30;59.70;;;;;;20911522;28;20166;-76
2022/03/28 13:47:31;;;;;;;19.30;9.87;;;22.40;61.90;;;;;;20907680;28;20021;-76
2022/03/28 13:57:31;;;;;;;22.50;11.03;;;22.80;62.40;;;;;;20906922;28;20100;-76
2022/03/28 14:07:33;;;;;;;21.10;11.00;;;22.20;61.50;;;;;;20907005;28;20088;-76
2022/03/28 14:17:37;;;;;;;18.45;10.07;;;22.40;66.10;;;;;;20906400;28;20033;-76
2022/03/28 14:27:37;;;;;;;22.23;11.20;;;22.20;63.00;;;;;;20907559;28;20033;-77
2022/03/28 14:37:41;;;;;;;22.90;11.37;;;21.70;65.50;;;;;;20920990;28;20083;-77
2022/03/28 14:47:43;;;;;;;17.85;11.18;;;22.60;64.30;;;;;;20904315;28;20036;-78
2022/03/28 14:57:43;;;;;;;22.48;11.25;;;22.00;61.50;;;;;;20939028;22;20045;-74
2022/03/28 15:07:44;;;;;;;24.63;11.50;;;22.10;64.70;;;;;;20952092;28;20041;-74
2022/03/28 15:17:45;;;;;;;20.13;10.60;;;21.50;64.50;;;;;;20889004;28;20037;-74
2022/03/28 15:27:46;;;;;;;20.77;10.57;;;21.60;66.20;;;;;;20877286;28;20033;-74
2022/03/28 15:37:47;;;;;;;18.80;9.70;;;22.10;63.80;;;;;;20843124;28;20131;-74
2022/03/28 15:47:48;;;;;;;23.67;11.17;;;21.40;62.20;;;;;;20895536;28;20279;-74
2022/03/28 15:57:49;;;;;;;18.47;9.87;;;20.90;62.90;;;;;;20883170;28;20037;-74
2022/03/28 16:07:49;;;;;;;18.83;10.13;;;21.30;63.00;;;;;;20813857;28;20033;-75
2022/03/28 16:17:50;;;;;;;19.93;9.90;;;20.70;64.80;;;;;;20776501;28;20048;-74
2022/03/28 16:27:52;;;;;;;20.90;10.03;;;20.30;62.50;;;;;;20770496;28;20057;-75
2022/03/28 16:37:53;;;;;;;18.98;9.60;;;20.30;63.20;;;;;;20771423;28;20373;-75
2022/03/28 16:47:54;;;;;;;27.23;10.83;;;20.20;63.00;;;;;;20771614;28;20056;-75
2022/03/28 16:57:55;;;;;;;26.93;10.93;;;19.80;68.80;;;;;;20775390;28;20055;-75
2022/03/28 17:07:56;;;;;;;17.33;9.13;;;19.30;73.30;;;;;;20863305;28;20033;-74
2022/03/28 17:17:57;;;;;;;11.67;7.17;;;18.50;76.40;;;;;;20865192;28;20399;-74
2022/03/28 17:27:58;;;;;;;16.67;8.70;;;17.70;80.70;;;;;;20824849;28;20037;-75
2022/03/28 17:37:59;;;;;;;17.03;8.70;;;17.30;80.70;;;;;;20825565;28;20496;-74
2022/03/28 17:48:00;;;;;;;22.60;9.43;;;16.30;85.30;;;;;;20824909;28;20025;-74
2022/03/28 17:58:01;;;;;;;29.02;10.35;;;15.80;86.40;;;;;;20828826;28;20357;-75
2022/03/28 18:08:03;;;;;;;16.37;8.13;;;15.00;89.30;;;;;;20870014;28;20120;-74
2022/03/28 18:18:04;;;;;;;16.27;8.07;;;14.10;89.30;;;;;;20911553;28;20027;-75
2022/03/28 18:28:05;;;;;;;14.60;7.30;;;13.40;91.30;;;;;;20921332;28;20028;-75
2022/03/28 18:38:06;;;;;;;14.70;7.43;;;13.20;92.30;;;;;;20920772;28;20041;-75
2022/03/28 18:48:07;;;;;;;22.23;8.47;;;12.60;93.40;;;;;;20920350;28;20398;-76
2022/03/28 18:58:08;;;;;;;16.90;7.87;;;12.60;92.90;;;;;;20918925;28;20094;-76
2022/03/28 19:08:16;;;;;;;16.13;8.30;;;12.00;94.20;;;;;;20918694;28;20063;-76
2022/03/28 19:18:17;;;;;;;15.43;8.73;;;11.80;94.70;;;;;;20916809;28;20036;-76
2022/03/28 19:28:18;;;;;;;13.87;7.10;;;11.40;95.80;;;;;;20893951;28;20403;-76
2022/03/28 19:38:19;;;;;;;14.13;6.80;;;11.10;96.00;;;;;;20920881;28;20044;-76
2022/03/28 19:48:20;;;;;;;16.67;7.00;;;10.60;98.60;;;;;;20903628;28;20037;-74
2022/03/28 19:58:21;;;;;;;11.13;6.10;;;10.70;98.20;;;;;;20874705;28;20423;-76
2022/03/28 20:08:21;;;;;;;13.27;6.70;;;10.70;98.00;;;;;;20811354;28;20082;-75
2022/03/28 20:18:22;;;;;;;13.13;6.83;;;10.40;98.80;;;;;;20818612;28;20030;-75
2022/03/28 20:28:24;;;;;;;13.43;6.10;;;10.00;99.90;;;;;;20829503;28;20068;-76
2022/03/28 20:38:25;;;;;;;13.15;6.05;;;9.90;99.90;;;;;;20828693;28;20041;-75
2022/03/28 20:48:28;;;;;;;12.60;6.00;;;9.50;99.90;;;;;;20828460;28;20033;-75
2022/03/28 20:58:29;;;;;;;12.05;5.95;;;9.40;99.90;;;;;;20877972;22;20048;-76
2022/03/28 21:08:30;;;;;;;14.77;6.23;;;9.40;99.90;;;;;;20975146;28;20032;-75
2022/03/28 21:18:33;;;;;;;9.47;4.17;;;9.20;99.90;;;;;;20993040;28;20045;-75
2022/03/28 21:28:34;;;;;;;14.68;6.57;;;8.80;99.90;;;;;;20976411;28;20050;-75
2022/03/28 21:38:35;;;;;;;13.73;6.97;;;8.70;99.90;;;;;;20990672;28;20107;-75
2022/03/28 21:48:36;;;;;;;9.20;5.83;;;8.60;99.90;;;;;;20972600;28;20131;-75
2022/03/28 21:58:37;;;;;;;12.27;5.97;;;8.60;99.90;;;;;;20972021;28;20029;-76
2022/03/28 22:08:38;;;;;;;10.00;5.47;;;8.30;99.90;;;;;;20989930;28;20056;-75
2022/03/28 22:18:39;;;;;;;11.37;5.87;;;8.30;99.90;;;;;;20989435;28;20056;-75
2022/03/28 22:28:39;;;;;;;10.10;5.57;;;8.20;99.90;;;;;;20989323;28;20059;-75
2022/03/28 22:38:40;;;;;;;9.87;5.60;;;7.70;99.90;;;;;;20988773;28;20028;-75
2022/03/28 22:48:41;;;;;;;16.40;7.10;;;7.70;99.90;;;;;;20990546;28;20020;-75
2022/03/28 22:58:42;;;;;;;10.33;5.03;;;7.60;99.90;;;;;;20984875;28;20051;-75
2022/03/28 23:08:44;;;;;;;9.47;5.73;;;7.60;99.90;;;;;;21004311;28;20037;-75
2022/03/28 23:18:44;;;;;;;12.20;5.35;;;7.70;99.90;;;;;;21001505;28;20674;-75
2022/03/28 23:28:45;;;;;;;11.27;5.70;;;7.50;99.90;;;;;;21000958;28;20033;-75
2022/03/28 23:38:46;;;;;;;11.47;4.83;;;7.10;99.90;;;;;;21000190;28;20419;-75
2022/03/28 23:48:47;;;;;;;10.83;4.90;;;7.60;99.90;;;;;;20981590;28;20112;-75
2022/03/28 23:58:48;;;;;;;12.15;5.82;;;7.80;99.90;;;;;;20997793;28;20029;-75
